sensor_id;sensor_type;location;lat;lon;timestamp;P1;durP1;ratioP1;P2;durP2;ratioP2
19560;SDS011;9927;47.792;10.616;2022-09-09T03:01:08;10.52;;;4.38;;
19560;SDS011;9927;47.792;10.616;2022-09-09T03:03:35;4.43;;;3.10;;
19560;SDS011;9927;47.792;10.616;2022-09-09T03:06:03;7.18;;;3.42;;
19560;SDS011;9927;47.792;10.616;2022-09-09T03:08:32;5.63;;;3.50;;
19560;SDS011;9927;47.792;10.616;2022-09-09T03:10:59;7.05;;;3.55;;
19560;SDS011;9927;47.792;10.616;2022-09-09T03:13:29;5.28;;;3.30;;
19560;SDS011;9927;47.792;10.616;2022-09-09T03:15:56;2.70;;;2.50;;
19560;SDS011;9927;47.792;10.616;2022-09-09T03:18:23;2.60;;;2.42;;
19560;SDS011;9927;47.792;10.616;2022-09-09T03:20:51;8.25;;;2.75;;
19560;SDS011;9927;47.792;10.616;2022-09-09T03:23:20;4.13;;;2.75;;
19560;SDS011;9927;47.792;10.616;2022-09-09T03:25:51;2.90;;;2.80;;
19560;SDS011;9927;47.792;10.616;2022-09-09T03:28:18;3.42;;;2.80;;
19560;SDS011;9927;47.792;10.616;2022-09-09T03:30:47;3.00;;;2.70;;
19560;SDS011;9927;47.792;10.616;2022-09-09T03:33:14;2.92;;;2.72;;
19560;SDS011;9927;47.792;10.616;2022-09-09T03:35:45;3.17;;;2.55;;
19560;SDS011;9927;47.792;10.616;2022-09-09T03:38:15;2.80;;;2.55;;
19560;SDS011;9927;47.792;10.616;2022-09-09T03:40:49;2.55;;;2.33;;
19560;SDS011;9927;47.792;10.616;2022-09-09T03:43:22;2.75;;;2.55;;
19560;SDS011;9927;47.792;10.616;2022-09-09T03:45:50;3.13;;;2.65;;
19560;SDS011;9927;47.792;10.616;2022-09-09T03:48:18;2.40;;;2.30;;
19560;SDS011;9927;47.792;10.616;2022-09-09T03:53:14;3.30;;;2.65;;
19560;SDS011;9927;47.792;10.616;2022-09-09T03:55:49;2.60;;;2.50;;
19560;SDS011;9927;47.792;10.616;2022-09-09T03:58:19;2.75;;;2.60;;
19560;SDS011;9927;47.792;10.616;2022-09-09T04:00:53;3.47;;;2.70;;
19560;SDS011;9927;47.792;10.616;2022-09-09T04:03:21;2.55;;;2.45;;
19560;SDS011;9927;47.792;10.616;2022-09-09T04:05:54;2.70;;;2.50;;
19560;SDS011;9927;47.792;10.616;2022-09-09T04:08:22;2.75;;;2.55;;
19560;SDS011;9927;47.792;10.616;2022-09-09T04:10:52;4.07;;;3.25;;
19560;SDS011;9927;47.792;10.616;2022-09-09T04:13:20;3.13;;;2.70;;
19560;SDS011;9927;47.792;10.616;2022-09-09T04:15:51;2.40;;;2.25;;
19560;SDS011;9927;47.792;10.616;2022-09-09T04:18:22;2.70;;;2.50;;
19560;SDS011;9927;47.792;10.616;2022-09-09T04:20:50;5.07;;;2.30;;
19560;SDS011;9927;47.792;10.616;2022-09-09T04:23:18;2.70;;;2.50;;
19560;SDS011;9927;47.792;10.616;2022-09-09T04:25:50;2.53;;;2.40;;
19560;SDS011;9927;47.792;10.616;2022-09-09T04:28:20;2.40;;;2.20;;
19560;SDS011;9927;47.792;10.616;2022-09-09T04:30:49;3.00;;;2.90;;
19560;SDS011;9927;47.792;10.616;2022-09-09T04:33:16;3.13;;;2.78;;
19560;SDS011;9927;47.792;10.616;2022-09-09T04:35:48;2.70;;;2.47;;
19560;SDS011;9927;47.792;10.616;2022-09-09T04:38:17;2.60;;;2.50;;
19560;SDS011;9927;47.792;10.616;2022-09-09T04:40:47;2.60;;;2.50;;
19560;SDS011;9927;47.792;10.616;2022-09-09T04:43:16;2.47;;;2.47;;
19560;SDS011;9927;47.792;10.616;2022-09-09T04:45:46;2.35;;;2.25;;
19560;SDS011;9927;47.792;10.616;2022-09-09T04:48:15;2.97;;;2.80;;
19560;SDS011;9927;47.792;10.616;2022-09-09T04:50:42;3.00;;;2.80;;
19560;SDS011;9927;47.792;10.616;2022-09-09T04:53:09;2.35;;;2.33;;
19560;SDS011;9927;47.792;10.616;2022-09-09T04:55:37;2.75;;;2.60;;
19560;SDS011;9927;47.792;10.616;2022-09-09T04:58:04;2.60;;;2.50;;
19560;SDS011;9927;47.792;10.616;2022-09-09T05:00:34;2.97;;;2.30;;
19560;SDS011;9927;47.792;10.616;2022-09-09T05:03:03;2.53;;;2.33;;
19560;SDS011;9927;47.792;10.616;2022-09-09T05:05:32;5.05;;;2.33;;
19560;SDS011;9927;47.792;10.616;2022-09-09T05:08:06;2.75;;;2.50;;
19560;SDS011;9927;47.792;10.616;2022-09-09T05:10:36;2.70;;;2.50;;
19560;SDS011;9927;47.792;10.616;2022-09-09T05:13:05;2.20;;;2.10;;
19560;SDS011;9927;47.792;10.616;2022-09-09T05:15:33;2.47;;;2.33;;
19560;SDS011;9927;47.792;10.616;2022-09-09T05:18:00;2.65;;;2.55;;
19560;SDS011;9927;47.792;10.616;2022-09-09T05:20:28;2.60;;;2.50;;
19560;SDS011;9927;47.792;10.616;2022-09-09T05:22:56;3.85;;;3.00;;
19560;SDS011;9927;47.792;10.616;2022-09-09T05:25:23;2.70;;;2.50;;
19560;SDS011;9927;47.792;10.616;2022-09-09T05:27:52;4.28;;;2.80;;
19560;SDS011;9927;47.792;10.616;2022-09-09T05:30:20;2.63;;;2.50;;
19560;SDS011;9927;47.792;10.616;2022-09-09T05:32:49;2.90;;;2.40;;
19560;SDS011;9927;47.792;10.616;2022-09-09T05:35:16;3.53;;;2.60;;
19560;SDS011;9927;47.792;10.616;2022-09-09T05:37:45;2.95;;;2.72;;
19560;SDS011;9927;47.792;10.616;2022-09-09T05:40:12;2.88;;;2.63;;
19560;SDS011;9927;47.792;10.616;2022-09-09T05:42:40;4.35;;;2.50;;
19560;SDS011;9927;47.792;10.616;2022-09-09T05:45:08;6.45;;;2.67;;
19560;SDS011;9927;47.792;10.616;2022-09-09T05:47:36;4.95;;;2.75;;
19560;SDS011;9927;47.792;10.616;2022-09-09T05:50:04;2.90;;;2.55;;
19560;SDS011;9927;47.792;10.616;2022-09-09T05:52:31;3.13;;;2.38;;
19560;SDS011;9927;47.792;10.616;2022-09-09T05:54:59;3.97;;;2.90;;
19560;SDS011;9927;47.792;10.616;2022-09-09T05:57:26;3.45;;;2.55;;
19560;SDS011;9927;47.792;10.616;2022-09-09T05:59:53;3.40;;;2.72;;
19560;SDS011;9927;47.792;10.616;2022-09-09T06:02:20;9.82;;;3.40;;
19560;SDS011;9927;47.792;10.616;2022-09-09T06:04:48;3.20;;;2.90;;
19560;SDS011;9927;47.792;10.616;2022-09-09T06:07:15;5.15;;;3.00;;
19560;SDS011;9927;47.792;10.616;2022-09-09T06:09:43;4.72;;;2.80;;
19560;SDS011;9927;47.792;10.616;2022-09-09T06:12:10;4.60;;;2.90;;
19560;SDS011;9927;47.792;10.616;2022-09-09T06:14:37;3.10;;;2.80;;
19560;SDS011;9927;47.792;10.616;2022-09-09T06:17:10;2.90;;;2.67;;
19560;SDS011;9927;47.792;10.616;2022-09-09T06:19:37;2.95;;;2.75;;
19560;SDS011;9927;47.792;10.616;2022-09-09T06:22:04;3.05;;;2.55;;
19560;SDS011;9927;47.792;10.616;2022-09-09T06:24:31;3.22;;;2.78;;
19560;SDS011;9927;47.792;10.616;2022-09-09T06:26:59;2.28;;;2.10;;
19560;SDS011;9927;47.792;10.616;2022-09-09T06:29:26;3.78;;;2.70;;
19560;SDS011;9927;47.792;10.616;2022-09-09T06:31:53;2.50;;;2.42;;
19560;SDS011;9927;47.792;10.616;2022-09-09T06:34:21;2.55;;;2.40;;
19560;SDS011;9927;47.792;10.616;2022-09-09T06:36:48;2.80;;;2.60;;
19560;SDS011;9927;47.792;10.616;2022-09-09T06:39:15;2.78;;;2.58;;
19560;SDS011;9927;47.792;10.616;2022-09-09T06:41:43;4.30;;;2.60;;
19560;SDS011;9927;47.792;10.616;2022-09-09T06:44:10;2.83;;;2.63;;
19560;SDS011;9927;47.792;10.616;2022-09-09T06:46:38;2.42;;;2.22;;
19560;SDS011;9927;47.792;10.616;2022-09-09T06:49:07;2.70;;;2.50;;
19560;SDS011;9927;47.792;10.616;2022-09-09T06:51:36;2.60;;;2.40;;
19560;SDS011;9927;47.792;10.616;2022-09-09T06:54:10;2.53;;;2.42;;
19560;SDS011;9927;47.792;10.616;2022-09-09T06:56:39;2.60;;;2.30;;
19560;SDS011;9927;47.792;10.616;2022-09-09T06:59:08;3.03;;;2.40;;
19560;SDS011;9927;47.792;10.616;2022-09-09T07:01:37;2.40;;;2.20;;
19560;SDS011;9927;47.792;10.616;2022-09-09T07:04:07;3.65;;;2.10;;
19560;SDS011;9927;47.792;10.616;2022-09-09T07:06:37;2.50;;;2.30;;
19560;SDS011;9927;47.792;10.616;2022-09-09T07:09:07;2.28;;;2.10;;
19560;SDS011;9927;47.792;10.616;2022-09-09T07:11:39;4.55;;;2.08;;
19560;SDS011;9927;47.792;10.616;2022-09-09T07:14:08;4.18;;;2.30;;
19560;SDS011;9927;47.792;10.616;2022-09-09T07:16:37;2.20;;;2.10;;
19560;SDS011;9927;47.792;10.616;2022-09-09T07:19:05;2.40;;;2.20;;
19560;SDS011;9927;47.792;10.616;2022-09-09T07:21:32;2.08;;;1.98;;
19560;SDS011;9927;47.792;10.616;2022-09-09T07:24:00;2.40;;;2.20;;
19560;SDS011;9927;47.792;10.616;2022-09-09T07:26:29;2.00;;;1.90;;
19560;SDS011;9927;47.792;10.616;2022-09-09T07:28:57;1.90;;;1.80;;
19560;SDS011;9927;47.792;10.616;2022-09-09T07:31:25;2.70;;;2.03;;
19560;SDS011;9927;47.792;10.616;2022-09-09T07:33:56;2.00;;;1.83;;
19560;SDS011;9927;47.792;10.616;2022-09-09T07:36:25;2.03;;;1.92;;
19560;SDS011;9927;47.792;10.616;2022-09-09T07:39:00;1.90;;;1.80;;
19560;SDS011;9927;47.792;10.616;2022-09-09T07:41:31;2.33;;;1.80;;
19560;SDS011;9927;47.792;10.616;2022-09-09T07:44:05;2.17;;;1.80;;
19560;SDS011;9927;47.792;10.616;2022-09-09T07:46:34;4.22;;;2.08;;
19560;SDS011;9927;47.792;10.616;2022-09-09T07:49:02;3.38;;;2.15;;
19560;SDS011;9927;47.792;10.616;2022-09-09T07:51:31;2.25;;;2.05;;
19560;SDS011;9927;47.792;10.616;2022-09-09T07:54:01;2.03;;;1.92;;
19560;SDS011;9927;47.792;10.616;2022-09-09T07:56:33;2.10;;;1.95;;
19560;SDS011;9927;47.792;10.616;2022-09-09T07:59:00;1.67;;;1.65;;
19560;SDS011;9927;47.792;10.616;2022-09-09T08:01:29;3.33;;;1.98;;
19560;SDS011;9927;47.792;10.616;2022-09-09T08:04:01;2.20;;;2.00;;
19560;SDS011;9927;47.792;10.616;2022-09-09T08:06:32;3.03;;;1.80;;
19560;SDS011;9927;47.792;10.616;2022-09-09T08:09:01;2.25;;;1.60;;
19560;SDS011;9927;47.792;10.616;2022-09-09T08:11:30;1.58;;;1.48;;
19560;SDS011;9927;47.792;10.616;2022-09-09T08:14:05;1.73;;;1.50;;
19560;SDS011;9927;47.792;10.616;2022-09-09T08:16:35;1.50;;;1.50;;
19560;SDS011;9927;47.792;10.616;2022-09-09T08:19:04;1.80;;;1.70;;
19560;SDS011;9927;47.792;10.616;2022-09-09T08:21:35;1.30;;;1.30;;
19560;SDS011;9927;47.792;10.616;2022-09-09T08:24:04;1.70;;;1.70;;
19560;SDS011;9927;47.792;10.616;2022-09-09T08:26:33;2.28;;;1.40;;
19560;SDS011;9927;47.792;10.616;2022-09-09T08:29:03;1.75;;;1.65;;
19560;SDS011;9927;47.792;10.616;2022-09-09T08:31:33;1.65;;;1.55;;
19560;SDS011;9927;47.792;10.616;2022-09-09T08:34:01;1.63;;;1.63;;
19560;SDS011;9927;47.792;10.616;2022-09-09T08:36:31;2.30;;;1.48;;
19560;SDS011;9927;47.792;10.616;2022-09-09T08:39:00;3.10;;;1.50;;
19560;SDS011;9927;47.792;10.616;2022-09-09T08:50:21;2.58;;;1.50;;
19560;SDS011;9927;47.792;10.616;2022-09-09T08:55:37;1.50;;;1.42;;
19560;SDS011;9927;47.792;10.616;2022-09-09T08:58:16;1.45;;;1.40;;
19560;SDS011;9927;47.792;10.616;2022-09-09T09:09:00;1.50;;;1.40;;
19560;SDS011;9927;47.792;10.616;2022-09-09T09:11:40;1.45;;;1.45;;
19560;SDS011;9927;47.792;10.616;2022-09-09T09:17:05;2.03;;;1.80;;
19560;SDS011;9927;47.792;10.616;2022-09-09T09:19:37;1.50;;;1.50;;
19560;SDS011;9927;47.792;10.616;2022-09-09T09:22:13;2.33;;;1.70;;
19560;SDS011;9927;47.792;10.616;2022-09-09T09:24:49;1.40;;;1.40;;
19560;SDS011;9927;47.792;10.616;2022-09-09T09:27:25;1.30;;;1.30;;
19560;SDS011;9927;47.792;10.616;2022-09-09T09:30:06;1.67;;;1.60;;
19560;SDS011;9927;47.792;10.616;2022-09-09T09:35:25;5.25;;;2.15;;
19560;SDS011;9927;47.792;10.616;2022-09-09T09:37:52;1.98;;;1.63;;
19560;SDS011;9927;47.792;10.616;2022-09-09T09:40:47;1.85;;;1.75;;
19560;SDS011;9927;47.792;10.616;2022-09-09T09:43:24;2.13;;;1.30;;
19560;SDS011;9927;47.792;10.616;2022-09-09T09:45:55;1.40;;;1.30;;
19560;SDS011;9927;47.792;10.616;2022-09-09T09:48:43;2.28;;;1.77;;
19560;SDS011;9927;47.792;10.616;2022-09-09T09:51:13;2.17;;;1.92;;
19560;SDS011;9927;47.792;10.616;2022-09-09T09:53:42;2.80;;;2.00;;
19560;SDS011;9927;47.792;10.616;2022-09-09T09:56:11;2.00;;;1.90;;
19560;SDS011;9927;47.792;10.616;2022-09-09T10:01:26;1.67;;;1.58;;
19560;SDS011;9927;47.792;10.616;2022-09-09T10:04:12;1.90;;;1.60;;
19560;SDS011;9927;47.792;10.616;2022-09-09T10:06:50;2.42;;;2.30;;
19560;SDS011;9927;47.792;10.616;2022-09-09T10:09:21;1.88;;;1.77;;
19560;SDS011;9927;47.792;10.616;2022-09-09T10:11:55;1.75;;;1.52;;
19560;SDS011;9927;47.792;10.616;2022-09-09T10:14:43;2.05;;;1.63;;
19560;SDS011;9927;47.792;10.616;2022-09-09T10:26:19;2.00;;;1.90;;
19560;SDS011;9927;47.792;10.616;2022-09-09T10:37:06;1.67;;;1.58;;
19560;SDS011;9927;47.792;10.616;2022-09-09T10:39:50;2.55;;;1.77;;
19560;SDS011;9927;47.792;10.616;2022-09-09T10:42:31;1.60;;;1.50;;
19560;SDS011;9927;47.792;10.616;2022-09-09T10:56:10;1.77;;;1.67;;
19560;SDS011;9927;47.792;10.616;2022-09-09T10:58:48;1.60;;;1.50;;
19560;SDS011;9927;47.792;10.616;2022-09-09T11:01:20;1.52;;;1.42;;
19560;SDS011;9927;47.792;10.616;2022-09-09T11:04:03;1.50;;;1.40;;
19560;SDS011;9927;47.792;10.616;2022-09-09T11:06:39;1.63;;;1.50;;
19560;SDS011;9927;47.792;10.616;2022-09-09T11:09:14;1.52;;;1.42;;
19560;SDS011;9927;47.792;10.616;2022-09-09T11:11:53;1.70;;;1.60;;
19560;SDS011;9927;47.792;10.616;2022-09-09T11:14:41;1.60;;;1.50;;
19560;SDS011;9927;47.792;10.616;2022-09-09T11:17:15;1.50;;;1.40;;
19560;SDS011;9927;47.792;10.616;2022-09-09T11:19:47;2.05;;;1.58;;
19560;SDS011;9927;47.792;10.616;2022-09-09T11:22:17;2.47;;;1.80;;
19560;SDS011;9927;47.792;10.616;2022-09-09T11:25:08;2.50;;;1.75;;
19560;SDS011;9927;47.792;10.616;2022-09-09T11:30:22;1.80;;;1.70;;
19560;SDS011;9927;47.792;10.616;2022-09-09T11:38:52;2.63;;;1.67;;
19560;SDS011;9927;47.792;10.616;2022-09-09T11:41:32;1.80;;;1.70;;
19560;SDS011;9927;47.792;10.616;2022-09-09T11:44:05;2.90;;;1.80;;
19560;SDS011;9927;47.792;10.616;2022-09-09T11:46:43;2.08;;;1.73;;
19560;SDS011;9927;47.792;10.616;2022-09-09T11:49:25;4.30;;;2.00;;
19560;SDS011;9927;47.792;10.616;2022-09-09T11:52:11;3.38;;;1.70;;
19560;SDS011;9927;47.792;10.616;2022-09-09T11:57:59;3.13;;;1.63;;
19560;SDS011;9927;47.792;10.616;2022-09-09T12:03:01;3.40;;;1.52;;
19560;SDS011;9927;47.792;10.616;2022-09-09T12:05:36;1.48;;;1.38;;
19560;SDS011;9927;47.792;10.616;2022-09-09T12:08:09;1.65;;;1.55;;
19560;SDS011;9927;47.792;10.616;2022-09-09T12:10:38;1.70;;;1.60;;
19560;SDS011;9927;47.792;10.616;2022-09-09T12:15:53;2.72;;;1.50;;
19560;SDS011;9927;47.792;10.616;2022-09-09T12:18:23;1.40;;;1.30;;
19560;SDS011;9927;47.792;10.616;2022-09-09T12:34:20;2.22;;;1.70;;
19560;SDS011;9927;47.792;10.616;2022-09-09T12:36:58;1.67;;;1.48;;
19560;SDS011;9927;47.792;10.616;2022-09-09T12:39:49;1.65;;;1.45;;
19560;SDS011;9927;47.792;10.616;2022-09-09T12:42:26;2.85;;;1.45;;
19560;SDS011;9927;47.792;10.616;2022-09-09T12:45:00;2.03;;;1.33;;
19560;SDS011;9927;47.792;10.616;2022-09-09T12:47:36;1.60;;;1.50;;
19560;SDS011;9927;47.792;10.616;2022-09-09T12:50:16;1.95;;;1.40;;
19560;SDS011;9927;47.792;10.616;2022-09-09T12:52:49;3.45;;;1.73;;
19560;SDS011;9927;47.792;10.616;2022-09-09T12:55:21;3.40;;;1.35;;
19560;SDS011;9927;47.792;10.616;2022-09-09T12:57:51;3.25;;;1.50;;
19560;SDS011;9927;47.792;10.616;2022-09-09T13:00:20;2.85;;;1.27;;
19560;SDS011;9927;47.792;10.616;2022-09-09T13:03:02;1.67;;;1.42;;
19560;SDS011;9927;47.792;10.616;2022-09-09T13:05:42;1.75;;;1.50;;
19560;SDS011;9927;47.792;10.616;2022-09-09T13:08:10;2.40;;;1.60;;
19560;SDS011;9927;47.792;10.616;2022-09-09T13:10:40;2.80;;;1.50;;
19560;SDS011;9927;47.792;10.616;2022-09-09T13:13:24;1.95;;;1.42;;
19560;SDS011;9927;47.792;10.616;2022-09-09T13:15:57;1.58;;;1.50;;
19560;SDS011;9927;47.792;10.616;2022-09-09T13:18:28;2.55;;;1.58;;
19560;SDS011;9927;47.792;10.616;2022-09-09T13:20:58;2.55;;;1.70;;
19560;SDS011;9927;47.792;10.616;2022-09-09T13:23:35;1.98;;;1.52;;
19560;SDS011;9927;47.792;10.616;2022-09-09T13:26:25;3.20;;;2.17;;
19560;SDS011;9927;47.792;10.616;2022-09-09T13:28:53;2.65;;;1.85;;
19560;SDS011;9927;47.792;10.616;2022-09-09T13:31:27;2.38;;;1.58;;
19560;SDS011;9927;47.792;10.616;2022-09-09T13:33:56;2.55;;;1.30;;
19560;SDS011;9927;47.792;10.616;2022-09-09T13:36:30;2.33;;;1.27;;
19560;SDS011;9927;47.792;10.616;2022-09-09T13:39:01;1.50;;;1.40;;
19560;SDS011;9927;47.792;10.616;2022-09-09T13:41:32;1.83;;;1.55;;
19560;SDS011;9927;47.792;10.616;2022-09-09T13:44:01;1.67;;;1.58;;
19560;SDS011;9927;47.792;10.616;2022-09-09T13:46:34;1.60;;;1.45;;
19560;SDS011;9927;47.792;10.616;2022-09-09T13:54:04;2.47;;;1.75;;
19560;SDS011;9927;47.792;10.616;2022-09-09T13:56:36;1.30;;;1.30;;
19560;SDS011;9927;47.792;10.616;2022-09-09T13:59:09;1.60;;;1.50;;
19560;SDS011;9927;47.792;10.616;2022-09-09T14:01:38;1.70;;;1.50;;
19560;SDS011;9927;47.792;10.616;2022-09-09T14:04:05;2.17;;;1.80;;
19560;SDS011;9927;47.792;10.616;2022-09-09T14:06:33;1.70;;;1.60;;
19560;SDS011;9927;47.792;10.616;2022-09-09T14:09:04;1.60;;;1.50;;
19560;SDS011;9927;47.792;10.616;2022-09-09T14:11:32;1.75;;;1.65;;
19560;SDS011;9927;47.792;10.616;2022-09-09T14:13:59;1.80;;;1.67;;
19560;SDS011;9927;47.792;10.616;2022-09-09T14:16:27;1.50;;;1.40;;
19560;SDS011;9927;47.792;10.616;2022-09-09T14:18:54;1.92;;;1.70;;
19560;SDS011;9927;47.792;10.616;2022-09-09T14:21:25;1.70;;;1.60;;
19560;SDS011;9927;47.792;10.616;2022-09-09T14:23:54;1.50;;;1.40;;
19560;SDS011;9927;47.792;10.616;2022-09-09T14:26:21;1.88;;;1.77;;
19560;SDS011;9927;47.792;10.616;2022-09-09T14:28:48;1.55;;;1.55;;
19560;SDS011;9927;47.792;10.616;2022-09-09T14:31:21;1.70;;;1.48;;
19560;SDS011;9927;47.792;10.616;2022-09-09T14:33:49;1.48;;;1.48;;
19560;SDS011;9927;47.792;10.616;2022-09-09T14:36:17;3.83;;;1.60;;
19560;SDS011;9927;47.792;10.616;2022-09-09T14:38:45;2.60;;;1.70;;
19560;SDS011;9927;47.792;10.616;2022-09-09T14:41:13;1.67;;;1.52;;
19560;SDS011;9927;47.792;10.616;2022-09-09T14:43:43;1.63;;;1.52;;
19560;SDS011;9927;47.792;10.616;2022-09-09T14:46:12;1.50;;;1.40;;
19560;SDS011;9927;47.792;10.616;2022-09-09T14:48:42;1.35;;;1.35;;
19560;SDS011;9927;47.792;10.616;2022-09-09T14:51:11;1.92;;;1.70;;
19560;SDS011;9927;47.792;10.616;2022-09-09T14:53:42;1.75;;;1.50;;
19560;SDS011;9927;47.792;10.616;2022-09-09T14:56:11;2.47;;;1.83;;
19560;SDS011;9927;47.792;10.616;2022-09-09T14:58:41;1.67;;;1.58;;
19560;SDS011;9927;47.792;10.616;2022-09-09T15:01:09;1.60;;;1.60;;
19560;SDS011;9927;47.792;10.616;2022-09-09T15:03:41;1.55;;;1.42;;
19560;SDS011;9927;47.792;10.616;2022-09-09T15:06:11;2.78;;;1.55;;
19560;SDS011;9927;47.792;10.616;2022-09-09T15:08:40;1.42;;;1.33;;
19560;SDS011;9927;47.792;10.616;2022-09-09T15:11:09;1.75;;;1.50;;
19560;SDS011;9927;47.792;10.616;2022-09-09T15:13:39;1.38;;;1.33;;
19560;SDS011;9927;47.792;10.616;2022-09-09T15:16:11;1.55;;;1.45;;
19560;SDS011;9927;47.792;10.616;2022-09-09T15:18:43;1.70;;;1.70;;
19560;SDS011;9927;47.792;10.616;2022-09-09T15:21:12;1.40;;;1.30;;
19560;SDS011;9927;47.792;10.616;2022-09-09T15:23:40;1.30;;;1.30;;
19560;SDS011;9927;47.792;10.616;2022-09-09T15:26:09;1.70;;;1.60;;
19560;SDS011;9927;47.792;10.616;2022-09-09T15:28:37;1.73;;;1.65;;
19560;SDS011;9927;47.792;10.616;2022-09-09T15:31:11;1.63;;;1.52;;
19560;SDS011;9927;47.792;10.616;2022-09-09T15:33:41;1.70;;;1.60;;
19560;SDS011;9927;47.792;10.616;2022-09-09T15:36:15;1.48;;;1.38;;
19560;SDS011;9927;47.792;10.616;2022-09-09T15:38:48;2.78;;;1.70;;
19560;SDS011;9927;47.792;10.616;2022-09-09T15:41:17;1.63;;;1.50;;
19560;SDS011;9927;47.792;10.616;2022-09-09T15:43:50;2.13;;;1.83;;
19560;SDS011;9927;47.792;10.616;2022-09-09T15:46:25;1.80;;;1.70;;
19560;SDS011;9927;47.792;10.616;2022-09-09T15:48:57;1.70;;;1.60;;
19560;SDS011;9927;47.792;10.616;2022-09-09T15:51:30;1.42;;;1.40;;
19560;SDS011;9927;47.792;10.616;2022-09-09T15:54:17;1.85;;;1.52;;
19560;SDS011;9927;47.792;10.616;2022-09-09T15:56:49;1.90;;;1.80;;
19560;SDS011;9927;47.792;10.616;2022-09-09T15:59:23;1.70;;;1.60;;
19560;SDS011;9927;47.792;10.616;2022-09-09T16:01:51;1.70;;;1.60;;
19560;SDS011;9927;47.792;10.616;2022-09-09T16:04:19;1.98;;;1.75;;
19560;SDS011;9927;47.792;10.616;2022-09-09T16:06:50;1.70;;;1.60;;
19560;SDS011;9927;47.792;10.616;2022-09-09T16:09:22;1.73;;;1.70;;
19560;SDS011;9927;47.792;10.616;2022-09-09T16:11:49;1.70;;;1.60;;
19560;SDS011;9927;47.792;10.616;2022-09-09T16:14:17;1.70;;;1.63;;
19560;SDS011;9927;47.792;10.616;2022-09-09T16:16:44;1.80;;;1.70;;
19560;SDS011;9927;47.792;10.616;2022-09-09T16:19:12;1.70;;;1.60;;
19560;SDS011;9927;47.792;10.616;2022-09-09T16:21:41;1.67;;;1.58;;
19560;SDS011;9927;47.792;10.616;2022-09-09T16:24:10;1.90;;;1.70;;
19560;SDS011;9927;47.792;10.616;2022-09-09T16:26:40;2.10;;;1.60;;
19560;SDS011;9927;47.792;10.616;2022-09-09T16:29:11;1.83;;;1.70;;
19560;SDS011;9927;47.792;10.616;2022-09-09T16:31:40;1.73;;;1.63;;
19560;SDS011;9927;47.792;10.616;2022-09-09T16:34:08;1.80;;;1.80;;
19560;SDS011;9927;47.792;10.616;2022-09-09T16:36:36;1.80;;;1.70;;
19560;SDS011;9927;47.792;10.616;2022-09-09T16:39:06;1.70;;;1.60;;
19560;SDS011;9927;47.792;10.616;2022-09-09T16:41:38;1.80;;;1.70;;
19560;SDS011;9927;47.792;10.616;2022-09-09T16:44:08;3.03;;;2.35;;
19560;SDS011;9927;47.792;10.616;2022-09-09T16:46:37;2.25;;;2.05;;
19560;SDS011;9927;47.792;10.616;2022-09-09T16:49:07;3.10;;;1.95;;
19560;SDS011;9927;47.792;10.616;2022-09-09T16:51:37;1.90;;;1.80;;
19560;SDS011;9927;47.792;10.616;2022-09-09T16:54:07;1.83;;;1.73;;
19560;SDS011;9927;47.792;10.616;2022-09-09T16:56:36;1.60;;;1.50;;
19560;SDS011;9927;47.792;10.616;2022-09-09T16:59:05;2.50;;;2.20;;
19560;SDS011;9927;47.792;10.616;2022-09-09T17:01:38;2.00;;;1.90;;
19560;SDS011;9927;47.792;10.616;2022-09-09T17:04:13;3.72;;;2.00;;
19560;SDS011;9927;47.792;10.616;2022-09-09T17:06:53;1.80;;;1.70;;
19560;SDS011;9927;47.792;10.616;2022-09-09T17:09:22;1.80;;;1.70;;
19560;SDS011;9927;47.792;10.616;2022-09-09T17:11:50;2.10;;;2.00;;
19560;SDS011;9927;47.792;10.616;2022-09-09T17:14:18;1.90;;;1.80;;
19560;SDS011;9927;47.792;10.616;2022-09-09T17:16:47;1.85;;;1.75;;
19560;SDS011;9927;47.792;10.616;2022-09-09T17:19:14;4.22;;;3.85;;
19560;SDS011;9927;47.792;10.616;2022-09-09T17:21:42;5.50;;;5.00;;
19560;SDS011;9927;47.792;10.616;2022-09-09T17:24:29;3.80;;;3.55;;
19560;SDS011;9927;47.792;10.616;2022-09-09T17:26:56;3.63;;;3.17;;
19560;SDS011;9927;47.792;10.616;2022-09-09T17:29:24;3.30;;;3.10;;
19560;SDS011;9927;47.792;10.616;2022-09-09T17:31:52;2.25;;;2.20;;
19560;SDS011;9927;47.792;10.616;2022-09-09T17:34:19;2.42;;;2.28;;
19560;SDS011;9927;47.792;10.616;2022-09-09T17:36:47;1.70;;;1.70;;
19560;SDS011;9927;47.792;10.616;2022-09-09T17:39:14;2.40;;;2.08;;
19560;SDS011;9927;47.792;10.616;2022-09-09T17:41:41;1.95;;;1.90;;
19560;SDS011;9927;47.792;10.616;2022-09-09T17:44:09;1.80;;;1.80;;
19560;SDS011;9927;47.792;10.616;2022-09-09T17:46:38;2.10;;;2.00;;
19560;SDS011;9927;47.792;10.616;2022-09-09T17:49:11;1.73;;;1.73;;
19560;SDS011;9927;47.792;10.616;2022-09-09T17:51:39;1.80;;;1.80;;
19560;SDS011;9927;47.792;10.616;2022-09-09T17:54:12;1.80;;;1.80;;
19560;SDS011;9927;47.792;10.616;2022-09-09T17:56:42;1.80;;;1.80;;
19560;SDS011;9927;47.792;10.616;2022-09-09T17:59:11;1.83;;;1.83;;
19560;SDS011;9927;47.792;10.616;2022-09-09T18:01:41;1.90;;;1.90;;
19560;SDS011;9927;47.792;10.616;2022-09-09T18:04:13;1.90;;;1.90;;
19560;SDS011;9927;47.792;10.616;2022-09-09T18:06:43;2.00;;;1.90;;
19560;SDS011;9927;47.792;10.616;2022-09-09T18:09:13;3.22;;;2.00;;
19560;SDS011;9927;47.792;10.616;2022-09-09T18:11:50;2.35;;;1.95;;
19560;SDS011;9927;47.792;10.616;2022-09-09T18:14:20;1.83;;;1.83;;
19560;SDS011;9927;47.792;10.616;2022-09-09T18:16:58;1.85;;;1.77;;
19560;SDS011;9927;47.792;10.616;2022-09-09T18:19:26;2.08;;;2.03;;
19560;SDS011;9927;47.792;10.616;2022-09-09T18:21:56;2.00;;;1.90;;
19560;SDS011;9927;47.792;10.616;2022-09-09T18:24:28;2.00;;;1.90;;
19560;SDS011;9927;47.792;10.616;2022-09-09T18:26:56;1.77;;;1.77;;
19560;SDS011;9927;47.792;10.616;2022-09-09T18:29:23;2.08;;;1.90;;
19560;SDS011;9927;47.792;10.616;2022-09-09T18:31:51;1.77;;;1.60;;
19560;SDS011;9927;47.792;10.616;2022-09-09T18:34:21;3.45;;;2.60;;
19560;SDS011;9927;47.792;10.616;2022-09-09T18:36:51;2.78;;;2.67;;
19560;SDS011;9927;47.792;10.616;2022-09-09T18:39:21;2.63;;;2.42;;
19560;SDS011;9927;47.792;10.616;2022-09-09T18:41:52;2.80;;;2.60;;
19560;SDS011;9927;47.792;10.616;2022-09-09T18:44:22;2.95;;;2.72;;
19560;SDS011;9927;47.792;10.616;2022-09-09T18:46:51;3.00;;;2.80;;
19560;SDS011;9927;47.792;10.616;2022-09-09T18:49:20;3.67;;;2.63;;
19560;SDS011;9927;47.792;10.616;2022-09-09T18:51:50;3.20;;;2.90;;
19560;SDS011;9927;47.792;10.616;2022-09-09T18:54:19;4.20;;;2.60;;
19560;SDS011;9927;47.792;10.616;2022-09-09T18:56:51;2.88;;;2.70;;
19560;SDS011;9927;47.792;10.616;2022-09-09T18:59:19;2.70;;;2.55;;
19560;SDS011;9927;47.792;10.616;2022-09-09T19:01:49;2.28;;;2.20;;
19560;SDS011;9927;47.792;10.616;2022-09-09T19:04:20;2.40;;;2.38;;
19560;SDS011;9927;47.792;10.616;2022-09-09T19:06:48;2.65;;;2.42;;
19560;SDS011;9927;47.792;10.616;2022-09-09T19:09:17;2.83;;;2.65;;
19560;SDS011;9927;47.792;10.616;2022-09-09T19:11:45;3.30;;;2.50;;
19560;SDS011;9927;47.792;10.616;2022-09-09T19:14:14;2.50;;;2.40;;
19560;SDS011;9927;47.792;10.616;2022-09-09T19:16:42;2.70;;;2.60;;
19560;SDS011;9927;47.792;10.616;2022-09-09T19:19:12;2.95;;;2.70;;
19560;SDS011;9927;47.792;10.616;2022-09-09T19:21:58;2.60;;;2.50;;
19560;SDS011;9927;47.792;10.616;2022-09-09T19:24:28;2.30;;;2.22;;
19560;SDS011;9927;47.792;10.616;2022-09-09T19:26:58;2.47;;;2.28;;
19560;SDS011;9927;47.792;10.616;2022-09-09T19:29:28;2.15;;;2.15;;
19560;SDS011;9927;47.792;10.616;2022-09-09T19:31:57;2.70;;;2.60;;
19560;SDS011;9927;47.792;10.616;2022-09-09T19:34:47;2.58;;;2.47;;
19560;SDS011;9927;47.792;10.616;2022-09-09T19:37:14;2.30;;;2.20;;
19560;SDS011;9927;47.792;10.616;2022-09-09T19:39:44;2.42;;;2.33;;
19560;SDS011;9927;47.792;10.616;2022-09-09T19:42:12;2.50;;;2.30;;
19560;SDS011;9927;47.792;10.616;2022-09-09T19:44:40;2.35;;;2.25;;